Time;durP1;ratioP1;P1;durP2;ratioP2;P2;SDS_P1;SDS_P2;PMS_P1;PMS_P2;Temp;Humidity;BMP_temperature;BMP_pressure;BME280_temperature;BME280_humidity;BME280_pressure;Samples;Min_cycle;Max_cycle;Signal;HPM_P1;HPM_P2
2021/12/14 00:00:24;;;;;;;29.35;16.42;;;8.20;99.90;;;;;;5055204;28;20036;-66
2021/12/14 00:02:51;;;;;;;29.92;15.77;;;8.20;99.90;;;;;;5059965;28;20119;-68
2021/12/14 00:05:18;;;;;;;28.50;15.80;;;8.30;99.90;;;;;;5056834;28;20103;-67
2021/12/14 00:07:44;;;;;;;28.45;15.38;;;8.30;99.90;;;;;;5050725;28;20041;-67
2021/12/14 00:10:29;;;;;;;29.33;15.98;;;8.20;99.90;;;;;;5041827;28;20045;-68
2021/12/14 00:13:02;;;;;;;23.83;15.70;;;8.20;99.90;;;;;;5061423;28;20095;-68
2021/12/14 00:15:28;;;;;;;24.25;15.57;;;8.20;99.90;;;;;;5055691;28;20048;-68
2021/12/14 00:18:00;;;;;;;29.63;16.27;;;8.20;99.90;;;;;;5068074;28;20048;-70
2021/12/14 00:20:28;;;;;;;28.27;16.23;;;8.20;99.90;;;;;;5050602;28;20090;-68
2021/12/14 00:25:28;;;;;;;23.67;15.23;;;8.20;99.90;;;;;;5060366;28;20056;-69
2021/12/14 00:27:56;;;;;;;24.95;15.48;;;8.20;99.90;;;;;;5054747;28;20098;-69
2021/12/14 00:30:22;;;;;;;22.60;15.13;;;8.20;99.90;;;;;;5064380;28;20037;-67
2021/12/14 00:32:47;;;;;;;24.30;16.25;;;8.20;99.90;;;;;;5062867;28;20044;-67
2021/12/14 00:35:13;;;;;;;23.00;14.15;;;8.30;99.90;;;;;;5060845;28;20113;-68
2021/12/14 00:37:46;;;;;;;21.48;14.63;;;8.30;99.90;;;;;;5058318;28;20494;-68
2021/12/14 00:40:22;;;;;;;22.38;15.02;;;8.30;99.90;;;;;;5066193;28;20052;-68
2021/12/14 00:42:49;;;;;;;26.35;14.95;;;8.30;99.90;;;;;;5057634;28;20061;-68
2021/12/14 00:45:15;;;;;;;26.50;15.52;;;8.30;99.90;;;;;;5068502;28;20279;-68
2021/12/14 00:47:41;;;;;;;24.08;15.15;;;8.20;99.90;;;;;;5063859;28;20557;-68
2021/12/14 00:50:09;;;;;;;23.42;15.05;;;8.30;99.90;;;;;;5051150;28;20151;-68
2021/12/14 00:52:35;;;;;;;26.10;14.50;;;8.30;99.90;;;;;;5032876;28;20056;-68
2021/12/14 00:55:04;;;;;;;23.27;15.02;;;8.30;99.90;;;;;;5057260;28;20046;-70
2021/12/14 00:57:31;;;;;;;26.42;13.90;;;8.30;99.90;;;;;;5058733;28;20051;-68
2021/12/14 00:59:57;;;;;;;23.10;14.48;;;8.30;99.90;;;;;;5060674;28;20143;-68
2021/12/14 01:02:24;;;;;;;24.33;14.45;;;8.30;99.90;;;;;;5059521;28;20514;-68
2021/12/14 01:04:56;;;;;;;21.70;14.60;;;8.30;99.90;;;;;;5058329;28;20040;-68
2021/12/14 01:07:27;;;;;;;23.65;14.25;;;8.30;99.90;;;;;;5057858;28;20449;-65
2021/12/14 01:09:57;;;;;;;19.92;13.25;;;8.30;99.90;;;;;;5051202;28;20099;-68
2021/12/14 01:12:40;;;;;;;25.40;14.68;;;8.30;99.90;;;;;;5051153;28;20125;-68
2021/12/14 01:18:16;;;;;;;21.05;13.40;;;8.30;99.90;;;;;;5053356;28;20072;-68
2021/12/14 01:20:50;;;;;;;22.40;13.85;;;8.20;99.90;;;;;;5053422;28;20059;-67
2021/12/14 01:23:27;;;;;;;20.55;14.52;;;8.20;99.90;;;;;;5050981;28;20069;-68
2021/12/14 01:25:56;;;;;;;20.92;14.13;;;8.20;99.90;;;;;;5056277;28;20041;-68
2021/12/14 01:28:26;;;;;;;21.20;13.70;;;8.20;99.90;;;;;;5054758;28;20407;-67
2021/12/14 01:31:06;;;;;;;24.15;15.43;;;8.20;99.90;;;;;;5064208;28;20029;-68
2021/12/14 01:33:34;;;;;;;21.17;14.25;;;8.20;99.90;;;;;;5053005;28;20048;-67
2021/12/14 01:36:07;;;;;;;25.33;15.60;;;8.20;99.90;;;;;;5062989;28;20041;-67
2021/12/14 01:38:35;;;;;;;24.50;15.00;;;8.20;99.90;;;;;;5054437;28;20045;-67
2021/12/14 01:41:10;;;;;;;28.45;16.35;;;8.20;99.90;;;;;;5058355;28;20052;-67
2021/12/14 01:43:56;;;;;;;22.27;15.45;;;8.20;99.90;;;;;;5062347;28;20044;-67
2021/12/14 01:46:27;;;;;;;23.17;14.57;;;8.20;99.90;;;;;;5057092;28;20095;-67
2021/12/14 01:48:54;;;;;;;22.92;14.63;;;8.20;99.90;;;;;;5051853;28;20048;-68
2021/12/14 01:51:20;;;;;;;24.13;15.70;;;8.20;99.90;;;;;;5065620;28;20490;-67
2021/12/14 01:53:50;;;;;;;24.67;14.85;;;8.20;99.90;;;;;;5058069;28;20036;-67
2021/12/14 01:56:23;;;;;;;20.55;15.30;;;8.20;99.90;;;;;;5068507;28;20032;-67
2021/12/14 01:58:58;;;;;;;25.75;16.35;;;8.20;99.90;;;;;;5060100;28;20047;-68
2021/12/14 02:01:35;;;;;;;29.13;15.88;;;8.20;99.90;;;;;;5062888;28;20128;-66
2021/12/14 02:04:12;;;;;;;24.35;16.83;;;8.20;99.90;;;;;;5056390;28;20147;-67
2021/12/14 02:06:38;;;;;;;24.92;15.45;;;8.20;99.90;;;;;;5055410;28;20047;-67
2021/12/14 02:09:09;;;;;;;24.88;16.98;;;8.20;99.90;;;;;;5057532;28;20391;-68
2021/12/14 02:11:47;;;;;;;25.33;16.25;;;8.20;99.90;;;;;;5060750;28;20498;-68
2021/12/14 02:14:13;;;;;;;28.73;16.55;;;8.20;99.90;;;;;;5060760;28;20073;-67
2021/12/14 02:16:39;;;;;;;25.63;16.75;;;8.20;99.90;;;;;;5060328;28;20098;-67
2021/12/14 02:19:13;;;;;;;27.88;17.98;;;8.20;99.90;;;;;;5065261;28;20097;-65
2021/12/14 02:21:41;;;;;;;28.67;17.42;;;8.20;99.90;;;;;;5054235;28;20041;-67
2021/12/14 02:24:08;;;;;;;28.57;17.73;;;8.20;99.90;;;;;;5055911;28;20040;-67
2021/12/14 02:26:36;;;;;;;30.55;18.30;;;8.20;99.90;;;;;;5057718;28;20041;-68
2021/12/14 02:29:05;;;;;;;27.08;17.25;;;8.20;99.90;;;;;;5065410;28;20041;-67
2021/12/14 02:31:35;;;;;;;27.50;18.40;;;8.20;99.90;;;;;;5056168;28;20086;-68
2021/12/14 02:34:02;;;;;;;29.95;18.60;;;8.20;99.90;;;;;;5038652;28;20049;-67
2021/12/14 02:36:48;;;;;;;29.52;18.75;;;8.20;99.90;;;;;;5057824;28;20429;-67
2021/12/14 02:39:46;;;;;;;36.05;20.42;;;8.20;99.90;;;;;;5045975;28;20546;-68
2021/12/14 02:42:23;;;;;;;34.28;20.92;;;8.20;99.90;;;;;;5055423;28;20128;-68
2021/12/14 02:44:52;;;;;;;30.77;19.85;;;8.20;99.90;;;;;;5056871;28;20106;-68
2021/12/14 02:47:19;;;;;;;34.63;20.85;;;8.20;99.90;;;;;;5067445;28;20055;-68
2021/12/14 02:49:45;;;;;;;32.30;20.50;;;8.20;99.90;;;;;;5065301;28;20516;-68
2021/12/14 02:52:20;;;;;;;32.67;21.15;;;8.10;99.90;;;;;;5060651;28;20133;-68
2021/12/14 02:54:52;;;;;;;32.03;21.15;;;8.20;99.90;;;;;;5065566;28;20127;-68
2021/12/14 02:57:23;;;;;;;32.20;20.73;;;8.20;99.90;;;;;;5041759;28;20037;-68
2021/12/14 02:59:50;;;;;;;34.35;21.90;;;8.20;99.90;;;;;;5061860;28;20063;-67
2021/12/14 03:02:24;;;;;;;34.08;21.27;;;8.10;99.90;;;;;;5054776;28;20514;-66
2021/12/14 03:04:56;;;;;;;34.90;21.50;;;8.10;99.90;;;;;;5061432;28;20045;-67
2021/12/14 03:07:29;;;;;;;36.58;22.42;;;8.10;99.90;;;;;;5058480;28;20143;-68
2021/12/14 03:12:47;;;;;;;30.80;21.27;;;8.10;99.90;;;;;;5053890;28;20096;-68
2021/12/14 03:15:15;;;;;;;32.80;21.83;;;8.10;99.90;;;;;;5065194;28;20071;-68
2021/12/14 03:17:43;;;;;;;35.42;22.02;;;8.10;99.90;;;;;;5055386;28;20045;-68
2021/12/14 03:20:20;;;;;;;34.90;22.17;;;8.10;99.90;;;;;;5064408;28;20184;-68
2021/12/14 03:22:53;;;;;;;35.20;23.10;;;8.00;99.90;;;;;;5052660;28;20044;-67
2021/12/14 03:25:20;;;;;;;37.75;22.83;;;8.10;99.90;;;;;;5057435;28;20514;-66
2021/12/14 03:27:49;;;;;;;36.35;22.67;;;8.00;99.90;;;;;;5041209;28;20037;-67
2021/12/14 03:31:01;;;;;;;35.35;20.85;;;8.00;99.90;;;;;;5054781;28;20364;-67
2021/12/14 03:33:33;;;;;;;38.03;23.33;;;8.00;99.90;;;;;;5059948;28;20060;-66
2021/12/14 03:36:12;;;;;;;35.55;22.80;;;8.00;99.90;;;;;;5051017;28;20048;-67
2021/12/14 03:38:58;;;;;;;34.97;22.42;;;8.00;99.90;;;;;;5054291;28;20041;-67
2021/12/14 03:41:38;;;;;;;36.22;22.65;;;8.00;99.90;;;;;;5061877;28;20406;-68
2021/12/14 03:44:20;;;;;;;36.08;22.80;;;8.00;99.90;;;;;;5067571;28;20044;-67
2021/12/14 03:47:04;;;;;;;41.45;23.77;;;8.00;99.90;;;;;;5065737;28;20127;-67
2021/12/14 03:49:39;;;;;;;34.92;21.73;;;8.00;99.90;;;;;;5060656;28;20045;-67
2021/12/14 03:52:10;;;;;;;35.95;22.00;;;8.00;99.90;;;;;;5063380;28;20037;-66
2021/12/14 03:54:35;;;;;;;39.83;25.05;;;8.00;99.90;;;;;;5065596;28;20223;-67
2021/12/14 03:57:02;;;;;;;37.22;22.55;;;8.00;99.90;;;;;;5055151;28;20539;-67
2021/12/14 03:59:30;;;;;;;36.72;23.02;;;8.10;99.90;;;;;;5057356;28;20037;-68
2021/12/14 04:01:58;;;;;;;39.13;23.95;;;8.10;99.90;;;;;;5061857;28;20045;-67
2021/12/14 04:04:35;;;;;;;37.17;24.30;;;8.10;99.90;;;;;;5058675;28;20102;-68
2021/12/14 04:07:05;;;;;;;39.97;24.73;;;8.10;99.90;;;;;;5054662;28;20084;-67
2021/12/14 04:09:34;;;;;;;38.03;23.60;;;8.00;99.90;;;;;;5059295;28;20120;-67
2021/12/14 04:12:01;;;;;;;36.30;22.63;;;8.10;99.90;;;;;;5054451;28;20049;-67
2021/12/14 04:14:29;;;;;;;42.58;24.52;;;8.10;99.90;;;;;;5038918;28;20515;-68
2021/12/14 04:16:56;;;;;;;39.33;23.85;;;8.10;99.90;;;;;;5057553;28;20059;-67
2021/12/14 04:19:25;;;;;;;37.70;23.85;;;8.10;99.90;;;;;;5064037;28;20557;-67
2021/12/14 04:21:54;;;;;;;36.78;22.27;;;8.10;99.90;;;;;;5054138;28;20445;-68
2021/12/14 04:24:27;;;;;;;38.20;23.55;;;8.10;99.90;;;;;;5061866;28;20328;-66
2021/12/14 04:26:55;;;;;;;43.05;24.23;;;8.10;99.90;;;;;;5055300;28;20136;-66
2021/12/14 04:29:21;;;;;;;40.13;24.38;;;8.10;99.90;;;;;;5057797;28;20045;-68
2021/12/14 04:31:48;;;;;;;37.40;23.83;;;8.20;99.90;;;;;;5063345;28;20402;-67
2021/12/14 04:34:17;;;;;;;41.33;24.00;;;8.20;99.90;;;;;;5054617;28;20430;-67
2021/12/14 04:36:46;;;;;;;39.17;24.08;;;8.20;99.90;;;;;;5058360;28;20044;-66
2021/12/14 04:53:21;;;;;;;46.40;27.50;;;8.20;99.90;;;;;;5060856;28;20049;-68
2021/12/14 04:55:47;;;;;;;49.63;26.80;;;8.10;99.90;;;;;;5059408;28;20040;-67
2021/12/14 04:58:13;;;;;;;42.25;27.23;;;8.10;99.90;;;;;;5043491;28;20075;-67
2021/12/14 05:00:50;;;;;;;44.85;26.23;;;8.10;99.90;;;;;;5059913;28;20049;-68
2021/12/14 05:03:25;;;;;;;45.08;26.42;;;8.10;99.90;;;;;;5058705;28;20045;-67
2021/12/14 05:06:08;;;;;;;45.63;26.63;;;8.10;99.90;;;;;;5055202;28;20055;-67
2021/12/14 05:11:11;;;;;;;46.85;27.30;;;8.10;99.90;;;;;;5065458;28;20476;-68
2021/12/14 05:13:40;;;;;;;49.20;28.13;;;8.10;99.90;;;;;;5058555;28;20036;-67
2021/12/14 05:16:07;;;;;;;48.00;26.92;;;8.10;99.90;;;;;;5067451;28;20040;-68
2021/12/14 05:18:34;;;;;;;41.67;26.80;;;8.10;99.90;;;;;;5060023;28;20128;-68
2021/12/14 05:21:00;;;;;;;46.00;27.42;;;8.10;99.90;;;;;;5066664;28;20048;-67
2021/12/14 05:23:32;;;;;;;43.45;27.30;;;8.00;99.90;;;;;;5044811;28;20049;-68
2021/12/14 05:26:02;;;;;;;48.00;28.00;;;8.00;99.90;;;;;;5057382;28;20047;-69
2021/12/14 05:28:29;;;;;;;45.42;27.80;;;8.10;99.90;;;;;;5054122;28;20080;-68
2021/12/14 05:30:58;;;;;;;44.95;27.42;;;8.00;99.90;;;;;;5065053;28;20040;-68
2021/12/14 05:33:31;;;;;;;47.42;28.63;;;8.00;99.90;;;;;;5059252;28;20088;-67
2021/12/14 05:36:01;;;;;;;46.90;27.27;;;8.10;99.90;;;;;;5037615;28;20105;-68
2021/12/14 05:38:43;;;;;;;47.15;27.67;;;8.00;99.90;;;;;;5065834;28;20047;-68
2021/12/14 05:43:05;;;;;;;48.53;27.80;;;8.10;99.90;;;;;;5058784;28;20052;-67
2021/12/14 05:43:56;;;;;;;45.28;28.63;;;8.00;99.90;;;;;;5054899;28;20060;-67
2021/12/14 05:46:22;;;;;;;49.70;28.48;;;8.00;99.90;;;;;;5058442;28;20041;-68
2021/12/14 05:48:48;;;;;;;47.88;28.08;;;8.00;99.90;;;;;;5051159;28;20045;-67
2021/12/14 05:51:14;;;;;;;47.88;28.23;;;8.00;99.90;;;;;;5062675;28;20056;-68
2021/12/14 05:53:43;;;;;;;54.00;29.38;;;8.00;99.90;;;;;;5062845;28;20086;-68
2021/12/14 05:56:15;;;;;;;46.85;28.30;;;8.10;99.90;;;;;;5065556;28;20471;-68
2021/12/14 05:58:41;;;;;;;53.13;29.25;;;8.00;99.90;;;;;;5061557;28;20044;-68
2021/12/14 06:01:11;;;;;;;53.25;30.77;;;8.00;99.90;;;;;;5040622;28;20049;-69
2021/12/14 06:03:42;;;;;;;50.00;29.98;;;8.00;99.90;;;;;;5067966;28;20169;-68
2021/12/14 06:06:31;;;;;;;48.05;28.90;;;8.00;99.90;;;;;;5055434;28;20497;-66
2021/12/14 06:09:18;;;;;;;55.88;29.42;;;8.00;99.90;;;;;;5064005;28;20458;-68
2021/12/14 06:11:47;;;;;;;51.38;29.40;;;8.00;99.90;;;;;;5050814;28;20073;-69
2021/12/14 06:14:17;;;;;;;50.92;28.88;;;8.00;99.90;;;;;;5056254;28;20053;-68
2021/12/14 06:16:44;;;;;;;55.03;30.80;;;8.00;99.90;;;;;;5047090;28;20479;-68
2021/12/14 06:19:21;;;;;;;53.15;30.63;;;8.10;99.90;;;;;;5066197;28;20091;-67
2021/12/14 06:21:50;;;;;;;48.30;29.42;;;8.00;99.90;;;;;;5059694;28;20044;-69
2021/12/14 06:24:16;;;;;;;55.10;29.52;;;8.10;99.90;;;;;;5061442;28;20040;-69
2021/12/14 06:26:47;;;;;;;50.70;29.35;;;8.10;99.90;;;;;;5064460;28;20063;-67
2021/12/14 06:29:21;;;;;;;55.05;29.30;;;8.10;99.90;;;;;;5057772;28;20041;-68
2021/12/14 06:31:48;;;;;;;48.85;28.38;;;8.10;99.90;;;;;;5055380;28;20491;-68
2021/12/14 06:34:24;;;;;;;51.30;30.05;;;8.10;99.90;;;;;;5054558;28;20040;-67
2021/12/14 06:40:15;;;;;;;53.72;29.67;;;8.10;99.90;;;;;;5058833;28;20451;-68
2021/12/14 06:42:48;;;;;;;52.60;30.17;;;8.10;99.90;;;;;;5056502;28;20162;-68
2021/12/14 06:45:26;;;;;;;49.80;30.33;;;8.10;99.90;;;;;;5039469;28;20097;-69
2021/12/14 06:47:57;;;;;;;54.20;29.97;;;8.10;99.90;;;;;;5059932;28;20044;-68
2021/12/14 06:50:45;;;;;;;56.40;31.75;;;8.10;99.90;;;;;;5066529;28;20665;-68
2021/12/14 06:53:15;;;;;;;58.47;31.45;;;8.10;99.90;;;;;;5057717;28;20453;-68
2021/12/14 06:55:42;;;;;;;51.03;29.80;;;8.10;99.90;;;;;;5064561;28;20041;-68
2021/12/14 06:58:21;;;;;;;56.08;30.58;;;8.10;99.90;;;;;;5058098;28;20093;-65
2021/12/14 07:01:24;;;;;;;56.38;30.92;;;8.10;99.90;;;;;;5058789;28;20045;-66
2021/12/14 07:03:53;;;;;;;52.80;30.50;;;8.20;99.90;;;;;;5055783;28;20041;-68
2021/12/14 07:06:40;;;;;;;53.60;30.80;;;8.10;99.90;;;;;;5055691;28;20505;-67
2021/12/14 07:09:16;;;;;;;52.72;30.20;;;8.20;99.90;;;;;;5059091;28;20037;-67
2021/12/14 07:11:55;;;;;;;;;;;8.20;99.90;;;;;;5060014;28;20044;-68
2021/12/14 07:14:26;;;;;;;57.58;30.98;;;8.20;99.90;;;;;;5060170;28;19927;-69
2021/12/14 07:16:58;;;;;;;54.75;31.13;;;8.20;99.90;;;;;;5057817;28;20581;-67
2021/12/14 07:19:41;;;;;;;58.75;32.60;;;8.20;99.90;;;;;;5070333;28;20106;-68
2021/12/14 07:22:22;;;;;;;61.22;33.72;;;8.20;99.90;;;;;;5054403;28;20441;-67
2021/12/14 07:25:05;;;;;;;62.10;32.72;;;8.20;99.90;;;;;;5053413;28;20053;-67
2021/12/14 07:27:43;;;;;;;58.08;32.42;;;8.20;99.90;;;;;;5065776;28;20044;-67
2021/12/14 07:30:24;;;;;;;64.47;33.83;;;8.20;99.90;;;;;;5036180;28;20041;-67
2021/12/14 07:33:13;;;;;;;63.00;33.03;;;8.10;99.90;;;;;;5066976;28;20386;-68
2021/12/14 07:35:51;;;;;;;63.10;32.58;;;8.20;99.90;;;;;;5055366;28;20081;-66
2021/12/14 07:38:19;;;;;;;70.55;34.58;;;8.20;99.90;;;;;;5056979;28;20457;-67
2021/12/14 07:40:50;;;;;;;69.25;35.00;;;8.20;99.90;;;;;;5062000;28;20051;-67
2021/12/14 07:43:22;;;;;;;69.93;35.30;;;8.20;99.90;;;;;;5073000;28;20044;-66
2021/12/14 07:45:50;;;;;;;63.22;32.58;;;8.20;99.90;;;;;;5072810;28;20211;-67
2021/12/14 07:48:18;;;;;;;66.03;33.33;;;8.20;99.90;;;;;;5062285;28;20115;-66
2021/12/14 07:50:54;;;;;;;73.90;35.58;;;8.20;99.90;;;;;;5070877;28;20498;-66
2021/12/14 07:53:40;;;;;;;73.43;35.95;;;8.20;99.90;;;;;;5072673;28;20050;-66
2021/12/14 07:56:09;;;;;;;67.07;35.20;;;8.20;99.90;;;;;;5042256;28;20037;-67
2021/12/14 07:58:42;;;;;;;63.90;34.78;;;8.20;99.90;;;;;;5060691;28;20521;-64
2021/12/14 08:01:09;;;;;;;73.57;36.90;;;8.20;99.90;;;;;;5061659;28;20514;-67
2021/12/14 08:03:37;;;;;;;71.15;34.67;;;8.20;99.90;;;;;;5059529;28;20152;-68
2021/12/14 08:06:11;;;;;;;71.20;36.13;;;8.20;99.90;;;;;;5070211;28;20047;-68
2021/12/14 08:08:53;;;;;;;69.47;34.40;;;8.20;99.90;;;;;;5069589;28;20052;-67
2021/12/14 08:14:09;;;;;;;72.97;35.63;;;8.30;99.90;;;;;;5060882;28;20144;-68
2021/12/14 08:17:00;;;;;;;70.68;37.55;;;8.20;99.90;;;;;;5068164;28;20082;-67
2021/12/14 08:19:31;;;;;;;77.65;38.42;;;8.30;99.90;;;;;;5062845;28;20045;-68
2021/12/14 08:22:29;;;;;;;70.88;36.22;;;8.30;99.90;;;;;;5071104;28;20052;-67
2021/12/14 08:24:56;;;;;;;71.43;37.20;;;8.30;99.90;;;;;;5056971;28;20446;-67
2021/12/14 08:27:24;;;;;;;81.32;39.22;;;8.30;99.90;;;;;;5059702;28;20041;-67
2021/12/14 08:30:04;;;;;;;80.55;37.70;;;8.30;99.90;;;;;;5060003;28;20040;-67
2021/12/14 08:32:34;;;;;;;80.38;38.08;;;8.30;99.90;;;;;;5069108;28;20040;-67
2021/12/14 08:35:03;;;;;;;72.30;36.28;;;8.30;99.90;;;;;;5063339;28;20047;-68
2021/12/14 08:37:34;;;;;;;70.60;35.85;;;8.30;99.90;;;;;;5065911;28;20040;-66
2021/12/14 08:40:07;;;;;;;79.32;37.10;;;8.30;99.90;;;;;;5064199;28;20040;-69
2021/12/14 08:42:40;;;;;;;74.90;35.83;;;8.40;99.90;;;;;;5066179;28;20046;-67
2021/12/14 08:45:25;;;;;;;86.57;37.60;;;8.30;99.90;;;;;;5062964;28;20470;-67
2021/12/14 08:48:16;;;;;;;73.78;36.53;;;8.30;99.90;;;;;;5063057;28;20084;-68
2021/12/14 08:50:57;;;;;;;75.88;36.47;;;8.30;99.90;;;;;;5063101;28;20054;-66
2021/12/14 08:53:26;;;;;;;77.03;37.42;;;8.30;99.90;;;;;;5046275;28;20126;-66
2021/12/14 08:55:56;;;;;;;78.68;36.92;;;8.40;99.90;;;;;;5067240;28;20095;-67
2021/12/14 08:58:23;;;;;;;74.78;35.72;;;8.40;99.90;;;;;;5051462;28;20048;-67
2021/12/14 09:00:54;;;;;;;71.55;36.78;;;8.40;99.90;;;;;;5067491;28;20108;-67
2021/12/14 09:03:32;;;;;;;76.60;37.92;;;8.40;99.90;;;;;;5065691;28;20037;-66
2021/12/14 09:06:03;;;;;;;69.43;35.33;;;8.40;99.90;;;;;;5059420;28;20052;-66
2021/12/14 09:08:29;;;;;;;79.05;36.58;;;8.40;99.90;;;;;;5053737;28;20037;-67
2021/12/14 09:10:56;;;;;;;83.95;37.17;;;8.40;99.90;;;;;;5057443;28;20049;-66
2021/12/14 09:13:24;;;;;;;79.30;37.83;;;8.40;99.90;;;;;;5060012;28;20046;-66
2021/12/14 09:16:04;;;;;;;75.23;37.97;;;8.40;99.90;;;;;;5060866;28;20044;-67
2021/12/14 09:18:36;;;;;;;76.88;37.70;;;8.40;99.90;;;;;;5067751;28;20091;-66
2021/12/14 09:21:10;;;;;;;70.25;35.03;;;8.40;99.90;;;;;;5061637;28;20058;-68
2021/12/14 09:23:39;;;;;;;76.82;36.42;;;8.50;99.90;;;;;;5062751;28;20375;-66
2021/12/14 09:26:10;;;;;;;71.40;35.88;;;8.50;99.90;;;;;;5051819;28;20648;-66
2021/12/14 09:28:36;;;;;;;74.53;36.35;;;8.50;99.90;;;;;;5042806;28;20049;-67
2021/12/14 09:31:08;;;;;;;73.57;36.22;;;8.50;99.90;;;;;;5055833;28;20037;-66
2021/12/14 09:33:36;;;;;;;77.68;36.70;;;8.50;99.90;;;;;;5065442;28;20040;-67
2021/12/14 09:36:11;;;;;;;;;;;8.50;99.90;;;;;;5058365;28;20503;-68
2021/12/14 09:38:40;;;;;;;76.88;36.75;;;8.60;99.90;;;;;;5061732;28;19920;-67
2021/12/14 09:41:10;;;;;;;75.78;37.22;;;8.60;99.90;;;;;;5054087;28;20045;-67
2021/12/14 09:43:38;;;;;;;82.25;38.72;;;8.70;99.90;;;;;;5064396;28;20573;-67
2021/12/14 09:46:06;;;;;;;78.72;36.38;;;8.60;99.90;;;;;;5065122;28;20449;-69
2021/12/14 09:48:36;;;;;;;78.10;36.60;;;8.70;99.90;;;;;;5062582;28;20093;-67
2021/12/14 09:51:07;;;;;;;77.43;36.72;;;8.70;99.90;;;;;;5059881;28;20177;-66
2021/12/14 09:53:36;;;;;;;75.05;36.85;;;8.80;99.90;;;;;;5067978;28;20102;-67
2021/12/14 09:56:03;;;;;;;72.22;36.28;;;8.80;99.90;;;;;;5060637;28;20040;-66
2021/12/14 09:58:35;;;;;;;70.80;36.10;;;8.70;99.90;;;;;;5062936;28;20125;-67
2021/12/14 10:01:12;;;;;;;65.60;34.75;;;8.80;99.90;;;;;;5060561;28;20056;-67
2021/12/14 10:03:44;;;;;;;71.97;36.58;;;8.80;99.90;;;;;;5065293;28;20499;-68
2021/12/14 10:06:14;;;;;;;73.22;36.40;;;8.90;99.90;;;;;;5063101;28;20128;-67
2021/12/14 10:08:45;;;;;;;66.38;33.97;;;8.80;99.90;;;;;;5069144;28;20067;-69
2021/12/14 10:11:26;;;;;;;75.13;35.58;;;8.80;99.90;;;;;;5069092;28;20041;-66
2021/12/14 10:13:55;;;;;;;69.75;35.78;;;8.70;99.90;;;;;;5065186;28;20029;-66
2021/12/14 10:16:21;;;;;;;75.85;36.42;;;8.70;99.90;;;;;;5034979;28;20050;-66
2021/12/14 10:18:54;;;;;;;69.97;34.83;;;8.70;99.90;;;;;;5058708;28;20083;-65
2021/12/14 10:21:35;;;;;;;64.75;35.15;;;8.80;99.90;;;;;;5060037;28;20044;-67
2021/12/14 10:24:03;;;;;;;70.13;33.67;;;8.70;99.90;;;;;;5056464;28;20044;-66
2021/12/14 10:26:32;;;;;;;72.38;36.83;;;8.70;99.90;;;;;;5069097;28;20410;-66
2021/12/14 10:29:00;;;;;;;63.42;34.75;;;8.70;99.90;;;;;;5036894;28;20502;-67
2021/12/14 10:31:39;;;;;;;71.40;36.33;;;8.70;99.90;;;;;;5073477;28;20059;-68
2021/12/14 10:34:11;;;;;;;73.88;36.45;;;8.70;99.90;;;;;;5069594;28;20039;-65
2021/12/14 10:36:44;;;;;;;74.55;36.70;;;8.70;99.90;;;;;;5061262;28;20359;-66
2021/12/14 10:44:48;;;;;;;67.88;35.05;;;8.80;99.90;;;;;;5060664;28;20076;-68
2021/12/14 10:47:16;;;;;;;67.30;33.25;;;8.80;99.90;;;;;;5058148;28;20316;-67
2021/12/14 10:49:43;;;;;;;66.50;34.45;;;8.80;99.90;;;;;;5063750;28;20443;-66
2021/12/14 10:52:16;;;;;;;68.03;34.20;;;8.80;99.90;;;;;;5066124;28;20109;-66
2021/12/14 10:54:48;;;;;;;72.82;35.45;;;8.80;99.90;;;;;;5062970;28;20080;-66
2021/12/14 10:57:20;;;;;;;73.45;35.90;;;8.80;99.90;;;;;;5071219;28;20049;-65
2021/12/14 10:59:48;;;;;;;64.88;33.47;;;8.80;99.90;;;;;;5061687;28;20033;-65
2021/12/14 11:02:20;;;;;;;65.85;31.35;;;8.80;99.90;;;;;;5056238;28;20053;-68
2021/12/14 11:04:54;;;;;;;67.80;33.92;;;8.90;99.90;;;;;;5060226;28;20097;-67
2021/12/14 11:07:35;;;;;;;66.50;32.72;;;8.90;99.90;;;;;;5065955;28;20037;-66
2021/12/14 11:10:18;;;;;;;65.20;32.58;;;8.90;99.90;;;;;;5061426;28;20045;-66
2021/12/14 11:12:49;;;;;;;64.32;32.50;;;8.90;99.90;;;;;;5058024;28;20045;-66
2021/12/14 11:15:17;;;;;;;65.63;31.23;;;8.90;99.90;;;;;;5065490;28;20049;-67
2021/12/14 11:20:33;;;;;;;68.15;32.22;;;8.90;99.90;;;;;;5063307;28;20410;-66
2021/12/14 11:22:59;;;;;;;66.47;31.65;;;8.90;99.90;;;;;;5060306;28;20044;-67
2021/12/14 11:25:29;;;;;;;65.05;32.90;;;8.90;99.90;;;;;;5067902;28;20072;-66
2021/12/14 11:28:19;;;;;;;57.75;30.17;;;8.90;99.90;;;;;;5056416;28;20049;-68
2021/12/14 11:30:53;;;;;;;66.22;33.22;;;9.00;99.90;;;;;;5062623;28;20086;-67
2021/12/14 11:33:26;;;;;;;70.30;31.58;;;9.00;99.90;;;;;;5068930;28;20119;-65
2021/12/14 11:35:58;;;;;;;58.70;31.48;;;9.00;99.90;;;;;;5054895;28;20044;-68
2021/12/14 11:38:52;;;;;;;58.85;29.75;;;9.00;99.90;;;;;;5063607;28;20044;-67
2021/12/14 11:41:25;;;;;;;65.07;30.60;;;9.00;99.90;;;;;;5070262;28;20041;-67
2021/12/14 11:44:05;;;;;;;55.45;28.42;;;9.00;99.90;;;;;;5065721;28;20033;-67
2021/12/14 11:46:33;;;;;;;61.33;29.27;;;9.00;99.90;;;;;;5058130;28;20040;-66
2021/12/14 11:49:03;;;;;;;53.83;28.95;;;9.00;99.90;;;;;;5063446;28;20517;-66
2021/12/14 11:51:31;;;;;;;59.45;28.60;;;9.00;99.90;;;;;;5066796;28;20037;-66
2021/12/14 11:54:02;;;;;;;59.72;28.85;;;9.10;99.90;;;;;;5064893;28;20538;-66
2021/12/14 11:56:30;;;;;;;63.03;28.88;;;9.00;99.90;;;;;;5062513;28;20037;-66
2021/12/14 11:59:01;;;;;;;57.00;29.40;;;9.00;99.90;;;;;;5061571;28;20045;-67
2021/12/14 12:01:29;;;;;;;63.22;28.75;;;9.10;99.90;;;;;;5064143;28;20076;-67
2021/12/14 12:03:58;;;;;;;56.17;27.52;;;9.00;99.90;;;;;;5065992;28;20113;-68
2021/12/14 12:11:50;;;;;;;53.15;26.23;;;9.10;99.90;;;;;;5060757;28;20580;-68
2021/12/14 12:14:17;;;;;;;49.78;26.20;;;9.10;99.90;;;;;;5062672;28;20045;-66
2021/12/14 12:16:43;;;;;;;51.28;25.30;;;9.10;99.90;;;;;;5063500;28;20540;-68
2021/12/14 12:19:16;;;;;;;51.80;25.88;;;9.10;99.90;;;;;;5069549;28;20052;-67
2021/12/14 12:21:45;;;;;;;51.67;24.63;;;9.10;99.90;;;;;;5059552;28;20400;-68
2021/12/14 12:24:45;;;;;;;57.30;24.83;;;9.10;99.90;;;;;;5058968;28;20521;-67
2021/12/14 12:27:17;;;;;;;50.65;23.35;;;9.10;99.90;;;;;;5040045;28;20076;-67
2021/12/14 12:29:43;;;;;;;61.85;26.35;;;9.00;99.90;;;;;;5067456;28;20048;-67
2021/12/14 12:32:18;;;;;;;57.60;25.67;;;9.10;99.90;;;;;;5059344;28;20053;-66
2021/12/14 12:34:47;;;;;;;52.75;24.17;;;9.20;99.90;;;;;;5059889;28;20132;-67
2021/12/14 12:37:14;;;;;;;53.17;22.58;;;9.20;99.90;;;;;;5059464;28;20078;-67
2021/12/14 12:39:48;;;;;;;44.45;21.85;;;9.20;99.90;;;;;;5068235;28;20532;-67
2021/12/14 12:42:16;;;;;;;46.15;22.10;;;9.10;99.90;;;;;;5058779;28;20052;-67
2021/12/14 12:44:43;;;;;;;45.70;20.73;;;9.20;99.90;;;;;;5061461;28;20494;-67
2021/12/14 12:47:18;;;;;;;44.25;20.42;;;9.20;99.90;;;;;;5063017;28;20053;-67
2021/12/14 12:49:50;;;;;;;44.58;20.02;;;9.20;99.90;;;;;;5061311;28;20118;-68
2021/12/14 12:52:18;;;;;;;40.55;19.40;;;9.20;99.90;;;;;;5060992;28;20068;-67
2021/12/14 12:55:12;;;;;;;43.13;19.92;;;9.20;99.90;;;;;;5065702;28;20147;-68
2021/12/14 12:57:53;;;;;;;41.33;19.83;;;9.20;99.90;;;;;;5059152;28;20122;-66
2021/12/14 13:00:29;;;;;;;42.92;19.25;;;9.20;99.90;;;;;;5054063;28;20048;-67
2021/12/14 13:02:57;;;;;;;38.63;19.02;;;9.20;99.90;;;;;;5045380;28;20575;-68
2021/12/14 13:05:34;;;;;;;43.85;19.73;;;9.20;99.90;;;;;;5059130;28;20127;-67
2021/12/14 13:08:40;;;;;;;46.05;18.65;;;9.20;99.90;;;;;;5057563;28;20041;-68
2021/12/14 13:11:25;;;;;;;42.05;19.05;;;9.20;99.90;;;;;;5043636;28;20430;-68
2021/12/14 13:14:03;;;;;;;41.70;19.35;;;9.30;99.90;;;;;;5053944;28;20060;-68
2021/12/14 13:16:34;;;;;;;42.85;19.08;;;9.20;99.90;;;;;;5057353;28;20040;-68
2021/12/14 13:19:11;;;;;;;42.30;19.33;;;9.20;99.90;;;;;;5055952;28;20472;-69
2021/12/14 13:22:02;;;;;;;41.97;18.23;;;9.20;99.90;;;;;;5050291;28;20059;-68
2021/12/14 13:24:37;;;;;;;42.92;18.98;;;9.20;99.90;;;;;;5048260;28;20045;-68
2021/12/14 13:27:20;;;;;;;36.47;17.35;;;9.30;99.90;;;;;;5056350;28;20093;-67
2021/12/14 13:29:58;;;;;;;36.20;16.77;;;9.20;99.90;;;;;;5058464;28;20047;-67
2021/12/14 13:32:36;;;;;;;37.30;17.52;;;9.20;99.90;;;;;;5056368;28;20073;-68
2021/12/14 13:35:12;;;;;;;32.10;16.08;;;9.30;99.90;;;;;;5060577;28;20383;-67
2021/12/14 13:37:52;;;;;;;31.38;15.73;;;9.30;99.90;;;;;;5058291;28;20076;-68
2021/12/14 13:40:30;;;;;;;33.55;15.88;;;9.30;99.90;;;;;;5062222;28;20148;-68
2021/12/14 13:43:21;;;;;;;33.28;15.95;;;9.30;99.90;;;;;;5056464;28;20041;-70
2021/12/14 13:45:57;;;;;;;36.05;15.90;;;9.30;99.90;;;;;;5054597;28;20362;-68
2021/12/14 13:48:29;;;;;;;29.98;15.25;;;9.30;99.90;;;;;;5054604;28;20463;-67
2021/12/14 13:51:04;;;;;;;35.95;15.40;;;9.30;99.90;;;;;;5063895;28;20056;-67